sensor_id;sensor_type;location;lat;lon;timestamp;noise_LAeq;noise_LA_min;noise_LA_max;noise_LA01;noise_LA95
66335;Laerm;53138;51.496;6.410;2023-01-10T00:00:09;37.67;33.92;53.22;;
66335;Laerm;53138;51.496;6.410;2023-01-10T00:00:22;41.92;33.06;62.18;;
66335;Laerm;53138;51.496;6.410;2023-01-10T00:00:33;35.90;33.66;45.29;;
66335;Laerm;53138;51.496;6.410;2023-01-10T00:00:46;39.97;32.92;59.79;;
66335;Laerm;53138;51.496;6.410;2023-01-10T00:00:56;36.36;33.29;47.98;;
66335;Laerm;53138;51.496;6.410;2023-01-10T00:01:06;37.03;33.85;52.78;;
66335;Laerm;53138;51.496;6.410;2023-01-10T00:01:17;38.44;34.21;54.89;;
66335;Laerm;53138;51.496;6.410;2023-01-10T00:01:27;39.63;33.40;54.35;;
66335;Laerm;53138;51.496;6.410;2023-01-10T00:01:37;38.03;34.25;50.26;;
66335;Laerm;53138;51.496;6.410;2023-01-10T00:01:47;36.47;34.21;46.41;;
66335;Laerm;53138;51.496;6.410;2023-01-10T00:01:57;40.33;32.57;57.90;;
66335;Laerm;53138;51.496;6.410;2023-01-10T00:02:08;38.00;33.41;52.79;;
66335;Laerm;53138;51.496;6.410;2023-01-10T00:02:18;39.26;33.30;58.23;;
66335;Laerm;53138;51.496;6.410;2023-01-10T00:02:28;36.32;33.26;48.83;;
66335;Laerm;53138;51.496;6.410;2023-01-10T00:02:38;37.03;33.58;50.93;;
66335;Laerm;53138;51.496;6.410;2023-01-10T00:02:49;39.64;33.65;57.65;;
66335;Laerm;53138;51.496;6.410;2023-01-10T00:03:06;35.59;33.31;42.86;;
66335;Laerm;53138;51.496;6.410;2023-01-10T00:03:17;37.40;33.85;55.94;;
66335;Laerm;53138;51.496;6.410;2023-01-10T00:03:27;42.55;33.66;64.08;;
66335;Laerm;53138;51.496;6.410;2023-01-10T00:03:37;36.57;33.50;51.86;;
66335;Laerm;53138;51.496;6.410;2023-01-10T00:03:47;35.75;33.48;41.91;;
66335;Laerm;53138;51.496;6.410;2023-01-10T00:03:58;36.87;33.96;50.37;;
66335;Laerm;53138;51.496;6.410;2023-01-10T00:04:09;37.99;33.77;55.59;;
66335;Laerm;53138;51.496;6.410;2023-01-10T00:04:19;35.19;32.94;41.00;;
66335;Laerm;53138;51.496;6.410;2023-01-10T00:04:29;37.52;32.77;54.51;;
66335;Laerm;53138;51.496;6.410;2023-01-10T00:04:39;36.31;33.14;51.75;;
66335;Laerm;53138;51.496;6.410;2023-01-10T00:04:50;34.95;33.30;43.63;;
66335;Laerm;53138;51.496;6.410;2023-01-10T00:05:00;35.85;33.48;51.25;;
66335;Laerm;53138;51.496;6.410;2023-01-10T00:05:10;38.05;33.35;50.13;;
66335;Laerm;53138;51.496;6.410;2023-01-10T00:05:20;38.26;33.71;50.06;;
66335;Laerm;53138;51.496;6.410;2023-01-10T00:05:30;36.06;33.33;47.96;;
66335;Laerm;53138;51.496;6.410;2023-01-10T00:05:41;35.94;33.46;43.15;;
66335;Laerm;53138;51.496;6.410;2023-01-10T00:05:51;38.49;34.51;51.46;;
66335;Laerm;53138;51.496;6.410;2023-01-10T00:06:01;40.67;34.00;59.15;;
66335;Laerm;53138;51.496;6.410;2023-01-10T00:06:11;35.69;32.74;45.62;;
66335;Laerm;53138;51.496;6.410;2023-01-10T00:06:22;35.41;33.15;43.21;;
66335;Laerm;53138;51.496;6.410;2023-01-10T00:06:32;36.38;33.68;50.19;;
66335;Laerm;53138;51.496;6.410;2023-01-10T00:06:42;35.77;33.67;40.94;;
66335;Laerm;53138;51.496;6.410;2023-01-10T00:06:52;38.81;33.71;53.86;;
66335;Laerm;53138;51.496;6.410;2023-01-10T00:07:02;37.54;33.74;55.99;;
66335;Laerm;53138;51.496;6.410;2023-01-10T00:07:13;35.40;33.44;42.98;;
66335;Laerm;53138;51.496;6.410;2023-01-10T00:07:23;35.12;32.82;47.09;;
66335;Laerm;53138;51.496;6.410;2023-01-10T00:07:33;34.52;32.56;36.12;;
66335;Laerm;53138;51.496;6.410;2023-01-10T00:07:44;36.33;32.99;53.35;;
66335;Laerm;53138;51.496;6.410;2023-01-10T00:07:54;37.17;33.29;54.81;;
66335;Laerm;53138;51.496;6.410;2023-01-10T00:08:05;36.89;33.16;52.38;;
66335;Laerm;53138;51.496;6.410;2023-01-10T00:08:16;37.48;32.81;55.86;;
66335;Laerm;53138;51.496;6.410;2023-01-10T00:08:26;36.49;32.93;47.37;;
66335;Laerm;53138;51.496;6.410;2023-01-10T00:08:36;40.53;33.31;61.26;;
66335;Laerm;53138;51.496;6.410;2023-01-10T00:08:47;40.15;32.85;59.06;;
66335;Laerm;53138;51.496;6.410;2023-01-10T00:08:57;36.20;32.83;49.74;;
66335;Laerm;53138;51.496;6.410;2023-01-10T00:09:08;36.48;33.25;46.80;;
66335;Laerm;53138;51.496;6.410;2023-01-10T00:09:19;38.49;33.72;56.66;;
66335;Laerm;53138;51.496;6.410;2023-01-10T00:09:29;36.35;32.96;52.01;;
66335;Laerm;53138;51.496;6.410;2023-01-10T00:09:39;37.02;33.05;53.95;;
66335;Laerm;53138;51.496;6.410;2023-01-10T00:09:52;35.28;33.23;38.12;;
66335;Laerm;53138;51.496;6.410;2023-01-10T00:10:02;35.50;33.35;47.21;;
66335;Laerm;53138;51.496;6.410;2023-01-10T00:10:13;34.76;32.69;40.96;;
66335;Laerm;53138;51.496;6.410;2023-01-10T00:10:23;34.43;32.83;36.90;;
66335;Laerm;53138;51.496;6.410;2023-01-10T00:10:34;35.50;33.07;48.70;;
66335;Laerm;53138;51.496;6.410;2023-01-10T00:10:44;34.89;33.07;36.74;;
66335;Laerm;53138;51.496;6.410;2023-01-10T00:10:54;35.34;33.74;36.99;;
66335;Laerm;53138;51.496;6.410;2023-01-10T00:11:04;35.52;33.63;43.64;;
66335;Laerm;53138;51.496;6.410;2023-01-10T00:11:35;38.78;33.88;52.70;;
66335;Laerm;53138;51.496;6.410;2023-01-10T00:12:03;40.34;34.22;49.06;;
66335;Laerm;53138;51.496;6.410;2023-01-10T00:12:32;43.52;34.48;66.70;;
66335;Laerm;53138;51.496;6.410;2023-01-10T00:13:01;37.76;32.99;49.38;;
66335;Laerm;53138;51.496;6.410;2023-01-10T00:13:30;41.15;33.27;58.10;;
66335;Laerm;53138;51.496;6.410;2023-01-10T00:13:40;41.70;36.31;48.73;;
66335;Laerm;53138;51.496;6.410;2023-01-10T00:13:52;37.63;34.33;43.16;;
66335;Laerm;53138;51.496;6.410;2023-01-10T00:14:02;36.97;33.57;50.50;;
66335;Laerm;53138;51.496;6.410;2023-01-10T00:14:13;35.79;33.74;42.96;;
66335;Laerm;53138;51.496;6.410;2023-01-10T00:14:25;37.80;33.76;54.55;;
66335;Laerm;53138;51.496;6.410;2023-01-10T00:14:35;37.93;33.99;56.16;;
66335;Laerm;53138;51.496;6.410;2023-01-10T00:14:45;36.24;34.02;45.41;;
66335;Laerm;53138;51.496;6.410;2023-01-10T00:14:55;36.24;33.43;49.56;;
66335;Laerm;53138;51.496;6.410;2023-01-10T00:15:06;35.95;32.86;46.14;;
66335;Laerm;53138;51.496;6.410;2023-01-10T00:15:16;38.72;34.13;54.99;;
66335;Laerm;53138;51.496;6.410;2023-01-10T00:15:26;35.44;33.01;45.31;;
66335;Laerm;53138;51.496;6.410;2023-01-10T00:15:37;35.52;32.90;49.40;;
66335;Laerm;53138;51.496;6.410;2023-01-10T00:15:47;35.30;33.64;40.69;;
66335;Laerm;53138;51.496;6.410;2023-01-10T00:15:58;35.37;33.14;39.23;;
66335;Laerm;53138;51.496;6.410;2023-01-10T00:16:17;36.90;33.22;51.38;;
66335;Laerm;53138;51.496;6.410;2023-01-10T00:16:27;38.38;34.40;52.49;;
66335;Laerm;53138;51.496;6.410;2023-01-10T00:16:38;38.23;34.27;53.92;;
66335;Laerm;53138;51.496;6.410;2023-01-10T00:16:48;39.44;35.02;51.40;;
66335;Laerm;53138;51.496;6.410;2023-01-10T00:16:58;36.99;34.29;45.39;;
66335;Laerm;53138;51.496;6.410;2023-01-10T00:17:08;43.87;34.19;62.98;;
66335;Laerm;53138;51.496;6.410;2023-01-10T00:17:19;44.65;33.66;66.40;;
66335;Laerm;53138;51.496;6.410;2023-01-10T00:17:30;35.86;33.41;44.40;;
66335;Laerm;53138;51.496;6.410;2023-01-10T00:17:41;39.05;33.96;58.99;;
66335;Laerm;53138;51.496;6.410;2023-01-10T00:17:51;37.60;34.61;45.20;;
66335;Laerm;53138;51.496;6.410;2023-01-10T00:18:01;40.29;36.04;53.45;;
66335;Laerm;53138;51.496;6.410;2023-01-10T00:18:11;44.18;38.29;55.27;;
66335;Laerm;53138;51.496;6.410;2023-01-10T00:18:22;44.65;39.38;50.69;;
66335;Laerm;53138;51.496;6.410;2023-01-10T00:18:32;45.52;37.61;52.44;;
66335;Laerm;53138;51.496;6.410;2023-01-10T00:18:42;38.71;35.77;52.16;;
66335;Laerm;53138;51.496;6.410;2023-01-10T00:18:52;40.32;35.92;47.71;;
66335;Laerm;53138;51.496;6.410;2023-01-10T00:19:03;45.51;40.80;58.77;;
66335;Laerm;53138;51.496;6.410;2023-01-10T00:19:13;44.58;38.01;55.83;;
66335;Laerm;53138;51.496;6.410;2023-01-10T00:19:23;38.93;35.10;53.41;;
66335;Laerm;53138;51.496;6.410;2023-01-10T00:19:33;36.97;33.89;48.43;;
66335;Laerm;53138;51.496;6.410;2023-01-10T00:19:44;37.09;34.48;49.02;;
66335;Laerm;53138;51.496;6.410;2023-01-10T00:19:54;37.43;34.52;47.38;;
66335;Laerm;53138;51.496;6.410;2023-01-10T00:20:04;38.55;34.93;54.10;;
66335;Laerm;53138;51.496;6.410;2023-01-10T00:20:15;40.32;34.78;55.99;;
66335;Laerm;53138;51.496;6.410;2023-01-10T00:20:25;38.94;33.94;56.07;;
66335;Laerm;53138;51.496;6.410;2023-01-10T00:20:35;38.06;33.39;56.25;;
66335;Laerm;53138;51.496;6.410;2023-01-10T00:20:46;35.81;33.34;43.21;;
66335;Laerm;53138;51.496;6.410;2023-01-10T00:20:56;36.25;32.16;49.48;;
66335;Laerm;53138;51.496;6.410;2023-01-10T00:21:06;35.72;33.06;44.59;;
66335;Laerm;53138;51.496;6.410;2023-01-10T00:21:18;35.24;33.34;46.61;;
66335;Laerm;53138;51.496;6.410;2023-01-10T00:21:28;35.88;33.17;50.24;;
66335;Laerm;53138;51.496;6.410;2023-01-10T00:21:40;35.79;33.34;48.20;;
66335;Laerm;53138;51.496;6.410;2023-01-10T00:21:50;34.40;32.39;36.11;;
66335;Laerm;53138;51.496;6.410;2023-01-10T00:22:00;35.83;32.09;47.01;;
66335;Laerm;53138;51.496;6.410;2023-01-10T00:22:14;35.93;33.22;46.70;;
66335;Laerm;53138;51.496;6.410;2023-01-10T00:22:27;35.03;32.90;42.91;;
66335;Laerm;53138;51.496;6.410;2023-01-10T00:22:37;35.51;33.59;46.75;;
66335;Laerm;53138;51.496;6.410;2023-01-10T00:22:48;36.62;33.43;48.90;;
66335;Laerm;53138;51.496;6.410;2023-01-10T00:23:01;35.65;32.98;45.66;;
66335;Laerm;53138;51.496;6.410;2023-01-10T00:23:12;36.38;33.83;42.97;;
66335;Laerm;53138;51.496;6.410;2023-01-10T00:23:22;35.60;33.57;47.70;;
66335;Laerm;53138;51.496;6.410;2023-01-10T00:23:33;34.69;32.72;36.67;;
66335;Laerm;53138;51.496;6.410;2023-01-10T00:23:43;34.93;33.33;41.22;;
66335;Laerm;53138;51.496;6.410;2023-01-10T00:23:53;35.62;33.39;46.41;;
66335;Laerm;53138;51.496;6.410;2023-01-10T00:24:04;34.91;33.09;39.14;;
66335;Laerm;53138;51.496;6.410;2023-01-10T00:24:29;35.32;32.83;46.05;;
66335;Laerm;53138;51.496;6.410;2023-01-10T00:24:39;35.85;32.98;51.93;;
66335;Laerm;53138;51.496;6.410;2023-01-10T00:24:50;35.26;33.05;42.44;;
66335;Laerm;53138;51.496;6.410;2023-01-10T00:25:00;34.84;32.68;45.60;;
66335;Laerm;53138;51.496;6.410;2023-01-10T00:25:11;34.82;33.02;36.86;;
66335;Laerm;53138;51.496;6.410;2023-01-10T00:25:21;35.50;33.24;48.09;;
66335;Laerm;53138;51.496;6.410;2023-01-10T00:25:31;34.68;32.72;40.71;;
66335;Laerm;53138;51.496;6.410;2023-01-10T00:25:45;34.24;32.56;39.40;;
66335;Laerm;53138;51.496;6.410;2023-01-10T00:25:55;34.54;32.78;40.57;;
66335;Laerm;53138;51.496;6.410;2023-01-10T00:26:05;36.75;32.76;54.53;;
66335;Laerm;53138;51.496;6.410;2023-01-10T00:26:15;35.16;32.62;41.23;;
66335;Laerm;53138;51.496;6.410;2023-01-10T00:26:26;36.09;33.25;51.68;;
66335;Laerm;53138;51.496;6.410;2023-01-10T00:26:36;34.95;32.58;45.56;;
66335;Laerm;53138;51.496;6.410;2023-01-10T00:26:46;34.58;32.44;42.34;;
66335;Laerm;53138;51.496;6.410;2023-01-10T00:27:00;34.85;32.67;41.35;;
66335;Laerm;53138;51.496;6.410;2023-01-10T00:27:11;34.41;32.75;36.10;;
66335;Laerm;53138;51.496;6.410;2023-01-10T00:27:22;34.46;32.72;39.31;;
66335;Laerm;53138;51.496;6.410;2023-01-10T00:27:32;34.58;32.68;37.68;;
66335;Laerm;53138;51.496;6.410;2023-01-10T00:27:44;34.86;32.90;38.46;;
66335;Laerm;53138;51.496;6.410;2023-01-10T00:27:57;35.58;33.28;44.86;;
66335;Laerm;53138;51.496;6.410;2023-01-10T00:28:25;36.83;33.01;53.07;;
66335;Laerm;53138;51.496;6.410;2023-01-10T00:28:35;37.26;33.60;53.29;;
66335;Laerm;53138;51.496;6.410;2023-01-10T00:28:48;35.05;33.53;41.78;;
66335;Laerm;53138;51.496;6.410;2023-01-10T00:28:58;36.46;33.41;49.74;;
66335;Laerm;53138;51.496;6.410;2023-01-10T00:29:08;37.21;33.48;51.85;;
66335;Laerm;53138;51.496;6.410;2023-01-10T00:29:19;35.90;33.14;46.42;;
66335;Laerm;53138;51.496;6.410;2023-01-10T00:29:30;35.25;32.99;45.86;;
66335;Laerm;53138;51.496;6.410;2023-01-10T00:29:40;36.16;32.73;49.86;;
66335;Laerm;53138;51.496;6.410;2023-01-10T00:29:53;36.37;33.37;49.71;;
66335;Laerm;53138;51.496;6.410;2023-01-10T00:30:03;35.14;32.70;43.03;;
66335;Laerm;53138;51.496;6.410;2023-01-10T00:30:22;36.54;33.09;53.24;;
66335;Laerm;53138;51.496;6.410;2023-01-10T00:30:33;35.29;33.01;44.01;;
66335;Laerm;53138;51.496;6.410;2023-01-10T00:30:47;34.87;33.13;37.15;;
66335;Laerm;53138;51.496;6.410;2023-01-10T00:31:03;39.98;33.16;48.03;;
66335;Laerm;53138;51.496;6.410;2023-01-10T00:31:17;46.10;40.83;50.70;;
66335;Laerm;53138;51.496;6.410;2023-01-10T00:31:27;46.20;39.81;51.61;;
66335;Laerm;53138;51.496;6.410;2023-01-10T00:31:38;39.96;36.05;46.77;;
66335;Laerm;53138;51.496;6.410;2023-01-10T00:31:48;38.35;35.92;49.32;;
66335;Laerm;53138;51.496;6.410;2023-01-10T00:31:58;40.08;34.99;56.13;;
66335;Laerm;53138;51.496;6.410;2023-01-10T00:32:08;40.49;35.15;53.06;;
66335;Laerm;53138;51.496;6.410;2023-01-10T00:32:19;38.45;34.46;51.19;;
66335;Laerm;53138;51.496;6.410;2023-01-10T00:32:29;37.10;34.20;47.91;;
66335;Laerm;53138;51.496;6.410;2023-01-10T00:32:43;37.75;34.18;52.82;;
66335;Laerm;53138;51.496;6.410;2023-01-10T00:32:53;35.82;33.87;46.58;;
66335;Laerm;53138;51.496;6.410;2023-01-10T00:33:06;35.25;33.26;43.79;;
66335;Laerm;53138;51.496;6.410;2023-01-10T00:33:16;37.54;33.97;48.86;;
66335;Laerm;53138;51.496;6.410;2023-01-10T00:33:29;36.10;33.70;46.90;;
66335;Laerm;53138;51.496;6.410;2023-01-10T00:33:43;37.10;33.03;51.44;;
66335;Laerm;53138;51.496;6.410;2023-01-10T00:33:53;35.48;33.00;45.68;;
66335;Laerm;53138;51.496;6.410;2023-01-10T00:34:03;38.56;34.63;54.48;;
66335;Laerm;53138;51.496;6.410;2023-01-10T00:34:14;38.20;34.05;55.21;;
66335;Laerm;53138;51.496;6.410;2023-01-10T00:34:24;36.32;33.98;42.22;;
66335;Laerm;53138;51.496;6.410;2023-01-10T00:34:34;39.32;33.86;59.16;;
66335;Laerm;53138;51.496;6.410;2023-01-10T00:34:45;36.08;33.87;45.96;;
66335;Laerm;53138;51.496;6.410;2023-01-10T00:34:55;35.63;33.10;45.93;;
66335;Laerm;53138;51.496;6.410;2023-01-10T00:35:06;35.80;33.50;48.14;;
66335;Laerm;53138;51.496;6.410;2023-01-10T00:35:16;38.64;33.42;57.97;;
66335;Laerm;53138;51.496;6.410;2023-01-10T00:35:26;35.31;32.89;39.02;;
66335;Laerm;53138;51.496;6.410;2023-01-10T00:35:37;37.02;34.14;45.33;;
66335;Laerm;53138;51.496;6.410;2023-01-10T00:35:47;36.10;33.85;40.31;;
66335;Laerm;53138;51.496;6.410;2023-01-10T00:35:58;37.09;33.22;53.99;;
66335;Laerm;53138;51.496;6.410;2023-01-10T00:36:08;36.98;33.47;54.51;;
66335;Laerm;53138;51.496;6.410;2023-01-10T00:36:19;38.04;33.73;55.64;;
66335;Laerm;53138;51.496;6.410;2023-01-10T00:36:29;39.57;33.81;58.61;;
66335;Laerm;53138;51.496;6.410;2023-01-10T00:36:39;40.57;33.19;61.85;;
66335;Laerm;53138;51.496;6.410;2023-01-10T00:36:51;42.67;33.14;63.16;;
66335;Laerm;53138;51.496;6.410;2023-01-10T00:37:01;38.46;33.55;57.84;;
66335;Laerm;53138;51.496;6.410;2023-01-10T00:37:12;40.06;33.73;57.76;;
66335;Laerm;53138;51.496;6.410;2023-01-10T00:37:22;38.51;33.71;57.36;;
66335;Laerm;53138;51.496;6.410;2023-01-10T00:37:32;36.16;34.32;41.23;;
66335;Laerm;53138;51.496;6.410;2023-01-10T00:37:43;37.93;34.45;50.23;;
66335;Laerm;53138;51.496;6.410;2023-01-10T00:37:53;43.34;35.24;63.80;;
66335;Laerm;53138;51.496;6.410;2023-01-10T00:38:09;39.62;34.02;60.29;;
66335;Laerm;53138;51.496;6.410;2023-01-10T00:38:19;42.03;34.19;62.42;;
66335;Laerm;53138;51.496;6.410;2023-01-10T00:38:30;41.45;33.60;62.87;;
66335;Laerm;53138;51.496;6.410;2023-01-10T00:38:42;42.26;33.88;61.92;;
66335;Laerm;53138;51.496;6.410;2023-01-10T00:38:52;37.36;33.90;47.08;;
66335;Laerm;53138;51.496;6.410;2023-01-10T00:39:02;36.76;34.50;45.14;;
66335;Laerm;53138;51.496;6.410;2023-01-10T00:39:16;39.57;34.90;55.42;;
66335;Laerm;53138;51.496;6.410;2023-01-10T00:39:29;42.06;33.77;64.77;;
66335;Laerm;53138;51.496;6.410;2023-01-10T00:39:40;37.52;34.05;55.27;;
66335;Laerm;53138;51.496;6.410;2023-01-10T00:39:50;43.33;33.94;62.73;;
66335;Laerm;53138;51.496;6.410;2023-01-10T00:40:00;36.45;34.58;40.62;;
66335;Laerm;53138;51.496;6.410;2023-01-10T00:40:11;37.62;34.65;51.40;;
66335;Laerm;53138;51.496;6.410;2023-01-10T00:40:21;37.66;34.78;47.05;;
66335;Laerm;53138;51.496;6.410;2023-01-10T00:40:32;37.06;34.20;48.75;;
66335;Laerm;53138;51.496;6.410;2023-01-10T00:40:42;43.56;34.55;64.44;;
66335;Laerm;53138;51.496;6.410;2023-01-10T00:40:53;36.68;34.48;40.24;;
66335;Laerm;53138;51.496;6.410;2023-01-10T00:41:03;42.36;34.56;61.97;;
66335;Laerm;53138;51.496;6.410;2023-01-10T00:41:33;40.20;33.91;60.49;;
66335;Laerm;53138;51.496;6.410;2023-01-10T00:42:02;42.07;34.74;64.36;;
66335;Laerm;53138;51.496;6.410;2023-01-10T00:42:31;37.96;33.63;58.61;;
66335;Laerm;53138;51.496;6.410;2023-01-10T00:43:00;37.15;33.25;52.70;;
66335;Laerm;53138;51.496;6.410;2023-01-10T00:43:29;36.56;34.03;52.39;;
66335;Laerm;53138;51.496;6.410;2023-01-10T00:43:58;37.02;34.20;49.05;;
66335;Laerm;53138;51.496;6.410;2023-01-10T00:44:08;42.67;35.01;58.88;;
66335;Laerm;53138;51.496;6.410;2023-01-10T00:44:19;38.29;34.93;47.95;;
66335;Laerm;53138;51.496;6.410;2023-01-10T00:44:29;37.76;34.01;49.45;;
66335;Laerm;53138;51.496;6.410;2023-01-10T00:44:39;36.55;33.71;50.99;;
66335;Laerm;53138;51.496;6.410;2023-01-10T00:44:50;35.45;33.20;41.20;;
66335;Laerm;53138;51.496;6.410;2023-01-10T00:45:00;35.56;33.87;38.23;;
66335;Laerm;53138;51.496;6.410;2023-01-10T00:45:10;35.73;34.01;37.84;;
66335;Laerm;53138;51.496;6.410;2023-01-10T00:45:21;35.59;33.46;37.31;;
66335;Laerm;53138;51.496;6.410;2023-01-10T00:45:33;35.41;33.36;38.15;;
66335;Laerm;53138;51.496;6.410;2023-01-10T00:45:44;36.32;33.82;48.01;;
66335;Laerm;53138;51.496;6.410;2023-01-10T00:45:54;37.24;34.63;47.71;;
66335;Laerm;53138;51.496;6.410;2023-01-10T00:46:07;38.21;33.28;53.64;;
66335;Laerm;53138;51.496;6.410;2023-01-10T00:46:17;36.50;34.02;48.89;;
66335;Laerm;53138;51.496;6.410;2023-01-10T00:46:27;37.43;34.29;50.20;;
66335;Laerm;53138;51.496;6.410;2023-01-10T00:46:37;38.45;34.02;53.29;;
66335;Laerm;53138;51.496;6.410;2023-01-10T00:46:48;40.21;33.84;59.74;;
66335;Laerm;53138;51.496;6.410;2023-01-10T00:46:58;36.62;34.48;42.14;;
66335;Laerm;53138;51.496;6.410;2023-01-10T00:47:08;35.61;33.30;43.75;;
66335;Laerm;53138;51.496;6.410;2023-01-10T00:47:18;35.67;33.83;42.69;;
66335;Laerm;53138;51.496;6.410;2023-01-10T00:47:28;35.22;33.46;37.77;;
66335;Laerm;53138;51.496;6.410;2023-01-10T00:47:39;35.97;33.48;46.52;;
66335;Laerm;53138;51.496;6.410;2023-01-10T00:47:49;35.10;33.49;38.37;;
66335;Laerm;53138;51.496;6.410;2023-01-10T00:47:59;34.86;32.97;36.56;;
66335;Laerm;53138;51.496;6.410;2023-01-10T00:48:10;35.22;32.88;42.67;;
66335;Laerm;53138;51.496;6.410;2023-01-10T00:48:21;35.90;33.10;46.76;;
66335;Laerm;53138;51.496;6.410;2023-01-10T00:48:31;35.38;33.32;44.66;;
66335;Laerm;53138;51.496;6.410;2023-01-10T00:48:41;42.67;33.16;62.92;;
66335;Laerm;53138;51.496;6.410;2023-01-10T00:48:51;36.94;33.50;51.52;;
66335;Laerm;53138;51.496;6.410;2023-01-10T00:49:01;35.51;33.35;46.60;;
66335;Laerm;53138;51.496;6.410;2023-01-10T00:49:15;35.00;33.33;36.75;;
66335;Laerm;53138;51.496;6.410;2023-01-10T00:49:25;35.74;33.59;48.07;;
66335;Laerm;53138;51.496;6.410;2023-01-10T00:49:35;35.40;33.73;40.76;;
66335;Laerm;53138;51.496;6.410;2023-01-10T00:49:45;35.35;33.58;40.55;;
66335;Laerm;53138;51.496;6.410;2023-01-10T00:49:56;37.20;33.89;52.92;;
66335;Laerm;53138;51.496;6.410;2023-01-10T00:50:06;37.51;33.87;49.70;;
66335;Laerm;53138;51.496;6.410;2023-01-10T00:50:17;36.94;33.12;51.85;;
66335;Laerm;53138;51.496;6.410;2023-01-10T00:50:27;37.34;33.84;52.69;;
66335;Laerm;53138;51.496;6.410;2023-01-10T00:50:38;38.62;34.12;56.86;;
66335;Laerm;53138;51.496;6.410;2023-01-10T00:50:48;36.05;33.11;49.10;;
66335;Laerm;53138;51.496;6.410;2023-01-10T00:50:58;35.01;32.88;38.74;;
66335;Laerm;53138;51.496;6.410;2023-01-10T00:51:08;35.37;33.77;37.62;;
66335;Laerm;53138;51.496;6.410;2023-01-10T00:51:19;35.48;33.47;38.43;;
66335;Laerm;53138;51.496;6.410;2023-01-10T00:51:29;38.63;33.99;54.23;;
66335;Laerm;53138;51.496;6.410;2023-01-10T00:51:39;40.21;37.03;48.70;;
66335;Laerm;53138;51.496;6.410;2023-01-10T00:51:49;39.05;35.76;51.73;;
66335;Laerm;53138;51.496;6.410;2023-01-10T00:51:59;39.85;36.68;48.66;;
66335;Laerm;53138;51.496;6.410;2023-01-10T00:52:10;36.91;34.33;43.60;;
66335;Laerm;53138;51.496;6.410;2023-01-10T00:52:20;37.89;34.46;48.47;;
66335;Laerm;53138;51.496;6.410;2023-01-10T00:52:30;36.33;34.34;41.51;;
66335;Laerm;53138;51.496;6.410;2023-01-10T00:52:40;36.28;34.17;41.73;;
66335;Laerm;53138;51.496;6.410;2023-01-10T00:52:51;35.71;33.59;43.62;;
66335;Laerm;53138;51.496;6.410;2023-01-10T00:53:01;36.08;33.26;45.12;;
66335;Laerm;53138;51.496;6.410;2023-01-10T00:53:11;36.65;33.91;44.67;;
66335;Laerm;53138;51.496;6.410;2023-01-10T00:53:21;35.24;33.69;43.34;;
66335;Laerm;53138;51.496;6.410;2023-01-10T00:53:32;34.93;32.78;42.37;;
66335;Laerm;53138;51.496;6.410;2023-01-10T00:53:42;36.55;32.94;49.37;;
66335;Laerm;53138;51.496;6.410;2023-01-10T00:53:52;38.26;34.36;48.40;;
66335;Laerm;53138;51.496;6.410;2023-01-10T00:54:02;38.39;34.17;50.95;;
66335;Laerm;53138;51.496;6.410;2023-01-10T00:54:13;38.20;34.88;52.11;;
66335;Laerm;53138;51.496;6.410;2023-01-10T00:54:23;37.03;34.33;46.35;;
66335;Laerm;53138;51.496;6.410;2023-01-10T00:54:33;37.31;34.55;45.92;;
66335;Laerm;53138;51.496;6.410;2023-01-10T00:54:44;38.91;34.50;50.53;;
66335;Laerm;53138;51.496;6.410;2023-01-10T00:54:54;37.82;34.80;50.84;;
66335;Laerm;53138;51.496;6.410;2023-01-10T00:55:04;38.11;34.20;53.79;;
66335;Laerm;53138;51.496;6.410;2023-01-10T00:55:15;35.97;33.35;46.86;;
66335;Laerm;53138;51.496;6.410;2023-01-10T00:55:25;35.79;33.21;44.72;;
66335;Laerm;53138;51.496;6.410;2023-01-10T00:55:35;35.23;33.21;44.57;;
66335;Laerm;53138;51.496;6.410;2023-01-10T00:55:45;35.27;33.47;39.54;;
66335;Laerm;53138;51.496;6.410;2023-01-10T00:55:56;35.56;33.20;46.98;;
66335;Laerm;53138;51.496;6.410;2023-01-10T00:56:06;36.21;33.42;51.75;;
66335;Laerm;53138;51.496;6.410;2023-01-10T00:56:16;35.53;33.17;42.42;;
66335;Laerm;53138;51.496;6.410;2023-01-10T00:56:26;36.21;33.37;50.28;;
66335;Laerm;53138;51.496;6.410;2023-01-10T00:56:37;35.28;33.52;36.98;;
66335;Laerm;53138;51.496;6.410;2023-01-10T00:56:47;37.10;33.48;52.22;;
66335;Laerm;53138;51.496;6.410;2023-01-10T00:56:57;35.57;33.82;43.42;;
66335;Laerm;53138;51.496;6.410;2023-01-10T00:57:07;35.55;33.46;40.82;;
66335;Laerm;53138;51.496;6.410;2023-01-10T00:57:17;34.91;32.81;36.52;;
66335;Laerm;53138;51.496;6.410;2023-01-10T00:57:28;36.13;33.27;50.74;;
66335;Laerm;53138;51.496;6.410;2023-01-10T00:57:38;37.42;33.33;50.95;;
66335;Laerm;53138;51.496;6.410;2023-01-10T00:57:48;37.31;34.25;47.67;;
66335;Laerm;53138;51.496;6.410;2023-01-10T00:57:58;37.69;34.93;48.63;;
66335;Laerm;53138;51.496;6.410;2023-01-10T00:58:08;39.64;36.13;49.69;;
66335;Laerm;53138;51.496;6.410;2023-01-10T00:58:20;41.55;36.45;58.88;;
66335;Laerm;53138;51.496;6.410;2023-01-10T00:58:31;40.63;36.04;48.81;;
66335;Laerm;53138;51.496;6.410;2023-01-10T00:58:42;37.35;34.57;50.44;;
66335;Laerm;53138;51.496;6.410;2023-01-10T00:58:53;38.00;35.00;53.88;;
66335;Laerm;53138;51.496;6.410;2023-01-10T00:59:04;38.43;34.58;51.72;;
66335;Laerm;53138;51.496;6.410;2023-01-10T00:59:14;43.07;34.29;62.94;;
66335;Laerm;53138;51.496;6.410;2023-01-10T00:59:24;37.94;34.88;49.79;;
66335;Laerm;53138;51.496;6.410;2023-01-10T00:59:35;40.63;34.57;57.65;;
66335;Laerm;53138;51.496;6.410;2023-01-10T00:59:45;37.38;34.13;49.96;;
66335;Laerm;53138;51.496;6.410;2023-01-10T00:59:55;39.26;34.79;52.26;;
66335;Laerm;53138;51.496;6.410;2023-01-10T01:00:05;37.23;34.23;48.38;;
66335;Laerm;53138;51.496;6.410;2023-01-10T01:00:18;36.41;34.47;41.54;;
66335;Laerm;53138;51.496;6.410;2023-01-10T01:00:28;36.19;33.95;43.13;;
66335;Laerm;53138;51.496;6.410;2023-01-10T01:00:39;35.79;33.95;37.63;;
66335;Laerm;53138;51.496;6.410;2023-01-10T01:00:49;36.03;34.10;38.91;;
66335;Laerm;53138;51.496;6.410;2023-01-10T01:00:59;36.16;34.20;42.18;;
66335;Laerm;53138;51.496;6.410;2023-01-10T01:01:09;38.49;34.57;52.75;;
66335;Laerm;53138;51.496;6.410;2023-01-10T01:01:20;37.63;35.23;46.33;;
66335;Laerm;53138;51.496;6.410;2023-01-10T01:01:30;36.21;34.21;37.87;;
66335;Laerm;53138;51.496;6.410;2023-01-10T01:01:40;36.93;34.40;47.29;;
66335;Laerm;53138;51.496;6.410;2023-01-10T01:01:50;36.49;34.53;44.34;;
66335;Laerm;53138;51.496;6.410;2023-01-10T01:02:01;38.16;35.05;52.91;;
66335;Laerm;53138;51.496;6.410;2023-01-10T01:02:11;37.66;35.22;47.40;;
66335;Laerm;53138;51.496;6.410;2023-01-10T01:02:21;40.14;36.43;47.33;;
66335;Laerm;53138;51.496;6.410;2023-01-10T01:02:31;38.59;34.36;48.43;;
66335;Laerm;53138;51.496;6.410;2023-01-10T01:02:41;36.87;34.31;44.94;;
66335;Laerm;53138;51.496;6.410;2023-01-10T01:02:52;38.09;34.26;48.25;;
66335;Laerm;53138;51.496;6.410;2023-01-10T01:03:02;38.85;35.19;48.08;;
66335;Laerm;53138;51.496;6.410;2023-01-10T01:03:12;36.68;34.41;47.33;;
66335;Laerm;53138;51.496;6.410;2023-01-10T01:03:22;41.11;34.16;61.65;;
66335;Laerm;53138;51.496;6.410;2023-01-10T01:03:33;38.02;33.99;54.55;;
66335;Laerm;53138;51.496;6.410;2023-01-10T01:03:43;35.68;33.35;47.98;;